createdAt,value
2018-03-17T00:00:40.225Z,19.80
2018-03-17T00:01:40.198Z,18.30
2018-03-17T00:03:01.190Z,19.30
2018-03-17T00:03:40.148Z,18.60
2018-03-17T00:04:40.154Z,18.70
2018-03-17T00:05:40.113Z,19.40
2018-03-17T00:06:40.096Z,19.10
2018-03-17T00:07:40.087Z,18.40
2018-03-17T00:08:40.067Z,18.40
2018-03-17T00:09:40.032Z,18.90
2018-03-17T00:10:40.004Z,18.30
2018-03-17T00:11:40.001Z,18.70
2018-03-17T00:12:40.009Z,18.70
2018-03-17T00:13:39.961Z,18.90
2018-03-17T00:14:39.937Z,19.10
2018-03-17T00:15:39.930Z,18.80
2018-03-17T00:16:39.885Z,18.90
2018-03-17T00:17:39.886Z,18.40
2018-03-17T00:18:39.841Z,19.30
2018-03-17T00:19:39.848Z,19.10
2018-03-17T00:20:39.817Z,18.80
2018-03-17T00:21:39.785Z,18.80
2018-03-17T00:22:39.781Z,20.70
2018-03-17T00:23:39.764Z,20.90
2018-03-17T00:24:39.732Z,19.40
2018-03-17T00:25:39.703Z,19.00
2018-03-17T00:26:39.689Z,18.40
2018-03-17T00:27:39.692Z,18.60
2018-03-17T00:28:39.660Z,19.10
2018-03-17T00:29:39.643Z,19.10
2018-03-17T00:30:39.625Z,18.40
2018-03-17T00:31:39.615Z,18.00
2018-03-17T00:32:39.558Z,18.40
2018-03-17T00:33:39.555Z,18.50
2018-03-17T00:34:39.549Z,18.30
2018-03-17T00:35:39.537Z,18.00
2018-03-17T00:36:39.483Z,17.70
2018-03-17T00:37:39.459Z,18.20
2018-03-17T00:38:39.450Z,18.40
2018-03-17T00:39:39.417Z,17.70
2018-03-17T00:40:39.422Z,18.00
2018-03-17T00:41:39.396Z,18.10
2018-03-17T00:42:39.356Z,17.70
2018-03-17T00:43:39.344Z,18.40
2018-03-17T00:44:39.361Z,18.00
2018-03-17T00:45:39.303Z,17.70
2018-03-17T00:46:39.293Z,18.10
2018-03-17T00:47:39.260Z,17.80
2018-03-17T00:48:39.235Z,18.30
2018-03-17T00:49:39.218Z,17.30
2018-03-17T00:50:39.214Z,17.60
2018-03-17T00:51:39.196Z,17.90
2018-03-17T00:52:39.157Z,17.50
2018-03-17T00:53:39.144Z,17.90
2018-03-17T00:54:39.112Z,18.00
2018-03-17T00:55:39.101Z,18.10
2018-03-17T00:56:39.115Z,18.50
2018-03-17T00:57:39.078Z,17.80
2018-03-17T00:58:39.067Z,18.00
2018-03-17T00:59:39.020Z,17.30
2018-03-17T01:00:38.994Z,17.60
2018-03-17T01:01:39.000Z,17.80
2018-03-17T01:02:38.956Z,18.60
2018-03-17T01:03:38.936Z,18.40
2018-03-17T01:04:38.930Z,18.30
2018-03-17T01:05:38.897Z,17.60
2018-03-17T01:06:38.873Z,18.20
2018-03-17T01:07:38.878Z,18.00
2018-03-17T01:08:38.871Z,17.90
2018-03-17T01:09:38.810Z,17.40
2018-03-17T01:10:38.791Z,18.20
2018-03-17T01:11:38.783Z,17.60
2018-03-17T01:12:38.764Z,17.70
2018-03-17T01:13:38.847Z,18.00
2018-03-17T01:14:38.713Z,18.30
2018-03-17T01:15:38.683Z,18.20
2018-03-17T01:16:38.673Z,17.30
2018-03-17T01:17:38.666Z,17.50
2018-03-17T01:18:38.672Z,17.60
2018-03-17T01:19:38.636Z,17.70
2018-03-17T01:20:38.591Z,17.10
2018-03-17T01:21:38.568Z,17.00
2018-03-17T01:22:38.543Z,17.40
2018-03-17T01:23:38.526Z,17.10
2018-03-17T01:24:38.528Z,17.00
2018-03-17T01:25:38.503Z,17.70
2018-03-17T01:26:38.463Z,17.20
2018-03-17T01:27:38.449Z,16.80
2018-03-17T01:28:38.428Z,16.90
2018-03-17T01:29:38.403Z,17.00
2018-03-17T01:30:38.396Z,17.10
2018-03-17T01:31:38.382Z,17.60
2018-03-17T01:32:38.339Z,16.60
2018-03-17T01:33:38.321Z,16.90
2018-03-17T01:34:38.319Z,16.40
2018-03-17T01:35:38.283Z,16.60
2018-03-17T01:36:38.303Z,16.60
2018-03-17T01:37:38.247Z,16.60
2018-03-17T01:38:38.221Z,16.70
2018-03-17T01:39:38.218Z,16.70
2018-03-17T01:40:38.194Z,16.50
2018-03-17T01:41:38.160Z,16.80
2018-03-17T01:42:38.175Z,16.10
2018-03-17T01:43:38.118Z,15.70
2018-03-17T01:44:38.100Z,16.60
2018-03-17T01:45:38.075Z,16.30
2018-03-17T01:46:38.062Z,17.10
2018-03-17T01:47:38.057Z,16.30
2018-03-17T01:48:38.025Z,16.40
2018-03-17T01:49:37.997Z,16.00
2018-03-17T01:50:37.985Z,15.70
2018-03-17T01:51:37.969Z,16.30
2018-03-17T01:52:37.963Z,16.50
2018-03-17T01:53:37.956Z,16.30
2018-03-17T01:54:37.908Z,17.00
2018-03-17T01:55:37.867Z,16.90
2018-03-17T01:56:37.852Z,16.90
2018-03-17T01:57:37.834Z,17.20
2018-03-17T01:58:37.805Z,17.00
2018-03-17T01:59:37.810Z,16.90
2018-03-17T02:00:37.775Z,16.60
2018-03-17T02:01:37.749Z,16.60
2018-03-17T02:02:37.733Z,16.60
2018-03-17T02:03:37.736Z,17.00
2018-03-17T02:04:37.694Z,16.20
2018-03-17T02:05:37.669Z,16.90
2018-03-17T02:06:37.650Z,16.60
2018-03-17T02:07:37.643Z,17.00
2018-03-17T02:08:37.606Z,17.50
2018-03-17T02:09:37.601Z,16.60
2018-03-17T02:10:37.577Z,16.80
2018-03-17T02:11:37.551Z,17.70
2018-03-17T02:12:37.518Z,17.20
2018-03-17T02:13:37.534Z,17.20
2018-03-17T02:14:37.504Z,17.30
2018-03-17T02:15:37.474Z,16.70
2018-03-17T02:16:37.439Z,17.60
2018-03-17T02:17:37.476Z,17.50
2018-03-17T02:18:37.404Z,17.90
2018-03-17T02:19:37.380Z,17.60
2018-03-17T02:20:37.363Z,17.30
2018-03-17T02:21:37.364Z,17.40
2018-03-17T02:22:37.334Z,16.70
2018-03-17T02:23:37.296Z,16.90
2018-03-17T02:24:37.283Z,17.90
2018-03-17T02:25:37.253Z,16.90
2018-03-17T02:26:37.267Z,16.30
2018-03-17T02:27:37.209Z,16.40
2018-03-17T02:28:37.192Z,16.10
2018-03-17T02:29:37.171Z,16.30
2018-03-17T02:30:37.149Z,15.60
2018-03-17T02:31:37.140Z,16.00
2018-03-17T02:32:37.127Z,15.70
2018-03-17T02:33:37.103Z,16.90
2018-03-17T02:34:37.070Z,16.00
2018-03-17T02:35:37.044Z,16.00
2018-03-17T02:36:37.025Z,15.60
2018-03-17T02:37:37.027Z,15.30
2018-03-17T02:38:36.985Z,14.90
2018-03-17T02:39:36.967Z,15.40
2018-03-17T02:40:36.940Z,15.10
2018-03-17T02:41:36.923Z,15.50
2018-03-17T02:42:36.919Z,15.00
2018-03-17T02:43:36.911Z,14.80
2018-03-17T02:44:36.860Z,16.20
2018-03-17T02:45:36.850Z,16.50
2018-03-17T02:46:36.821Z,16.90
2018-03-17T02:47:36.822Z,15.20
2018-03-17T02:48:36.778Z,16.70
2018-03-17T02:49:36.779Z,15.30
2018-03-17T02:50:36.755Z,15.60
2018-03-17T02:51:36.714Z,15.30
2018-03-17T02:52:36.769Z,14.90
2018-03-17T02:53:36.702Z,14.80
2018-03-17T02:54:36.657Z,13.90
2018-03-17T02:55:36.627Z,14.00
2018-03-17T02:56:36.610Z,14.40
2018-03-17T02:57:36.585Z,14.30
2018-03-17T02:58:36.562Z,14.80
2018-03-17T02:59:36.563Z,14.60
2018-03-17T03:00:36.521Z,14.20
2018-03-17T03:01:36.513Z,14.70
2018-03-17T03:02:36.513Z,14.40
2018-03-17T03:03:36.471Z,14.60
2018-03-17T03:04:36.438Z,14.60
2018-03-17T03:05:36.425Z,13.40
2018-03-17T03:06:36.415Z,13.40
2018-03-17T03:07:36.377Z,13.90
2018-03-17T03:08:36.372Z,14.00
2018-03-17T03:09:36.364Z,13.90
2018-03-17T03:10:36.320Z,14.60
2018-03-17T03:11:36.294Z,15.00
2018-03-17T03:12:36.295Z,14.80
2018-03-17T03:13:36.255Z,15.40
2018-03-17T03:14:36.254Z,14.80
2018-03-17T03:15:36.213Z,14.70
2018-03-17T03:16:36.196Z,15.90
2018-03-17T03:17:36.172Z,15.80
2018-03-17T03:18:36.177Z,15.30
2018-03-17T03:19:36.261Z,14.90
2018-03-17T03:20:36.110Z,14.70
2018-03-17T03:21:36.081Z,15.00
2018-03-17T03:22:36.086Z,15.00
2018-03-17T03:23:36.048Z,15.10
2018-03-17T03:24:36.044Z,15.30
2018-03-17T03:25:36.006Z,14.80
2018-03-17T03:26:35.994Z,14.70
2018-03-17T03:27:35.964Z,14.50
2018-03-17T03:28:35.975Z,14.10
2018-03-17T03:29:35.922Z,14.40
2018-03-17T03:30:35.904Z,14.90
2018-03-17T03:31:35.897Z,15.00
2018-03-17T03:32:35.858Z,15.30
2018-03-17T03:33:35.852Z,14.30
2018-03-17T03:34:35.817Z,14.40
2018-03-17T03:35:35.829Z,14.90
2018-03-17T03:36:35.772Z,14.60
2018-03-17T03:37:35.772Z,14.00
2018-03-17T03:38:35.733Z,14.70
2018-03-17T03:39:35.708Z,14.60
2018-03-17T03:40:35.686Z,14.30
2018-03-17T03:41:35.692Z,14.10
2018-03-17T03:42:35.650Z,13.70
2018-03-17T03:43:35.626Z,13.50
2018-03-17T03:44:35.605Z,13.30
2018-03-17T03:45:35.586Z,14.30
2018-03-17T03:46:35.575Z,13.90
2018-03-17T03:47:35.571Z,12.90
2018-03-17T03:48:35.639Z,13.00
2018-03-17T03:49:35.502Z,13.20
2018-03-17T03:50:35.475Z,13.00
2018-03-17T03:51:35.478Z,13.00
2018-03-17T03:52:35.435Z,12.40
2018-03-17T03:53:35.443Z,13.10
2018-03-17T03:54:35.424Z,13.50
2018-03-17T03:55:35.371Z,12.70
2018-03-17T03:56:35.357Z,12.30
2018-03-17T03:57:35.357Z,12.40
2018-03-17T03:58:35.347Z,12.20
2018-03-17T03:59:35.285Z,11.90
2018-03-17T04:00:35.279Z,12.10
2018-03-17T04:01:35.246Z,11.90
2018-03-17T04:02:35.223Z,11.90
2018-03-17T04:03:35.213Z,11.30
2018-03-17T04:04:35.204Z,11.70
2018-03-17T04:05:35.162Z,11.70
2018-03-17T04:06:35.140Z,11.40
2018-03-17T04:07:35.122Z,11.80
2018-03-17T04:08:35.099Z,11.80
2018-03-17T04:09:35.085Z,11.40
2018-03-17T04:10:35.093Z,11.50
2018-03-17T04:11:35.049Z,11.50
2018-03-17T04:12:35.047Z,11.00
2018-03-17T04:13:35.009Z,11.60
2018-03-17T04:14:34.976Z,11.40
2018-03-17T04:15:34.971Z,11.30
2018-03-17T04:16:34.950Z,11.70
2018-03-17T04:17:34.917Z,11.30
2018-03-17T04:18:34.884Z,10.80
2018-03-17T04:19:35.210Z,11.20
2018-03-17T04:20:34.852Z,11.40
2018-03-17T04:21:34.887Z,11.10
2018-03-17T04:22:34.821Z,11.70
2018-03-17T04:23:34.788Z,11.30
2018-03-17T04:24:34.765Z,11.00
2018-03-17T04:25:34.747Z,11.20
2018-03-17T04:26:34.717Z,11.30
2018-03-17T04:27:34.725Z,11.00
2018-03-17T04:28:34.677Z,11.40
2018-03-17T04:29:34.662Z,11.50
2018-03-17T04:30:34.667Z,11.70
2018-03-17T04:31:34.632Z,11.60
2018-03-17T04:32:34.613Z,11.10
2018-03-17T04:33:34.577Z,11.20
2018-03-17T04:34:34.713Z,11.30
2018-03-17T04:35:34.539Z,12.00
2018-03-17T04:36:34.512Z,12.20
2018-03-17T04:37:34.505Z,12.10
2018-03-17T04:38:34.483Z,12.20
2018-03-17T04:39:34.447Z,12.20
2018-03-17T04:40:34.422Z,12.00
2018-03-17T04:41:34.410Z,12.10
2018-03-17T04:42:34.425Z,12.40
2018-03-17T04:43:34.361Z,12.60
2018-03-17T04:44:34.357Z,12.30
2018-03-17T04:45:34.348Z,12.20
2018-03-17T04:46:34.300Z,12.70
2018-03-17T04:47:34.295Z,12.00
2018-03-17T04:48:34.271Z,12.90
2018-03-17T04:49:34.233Z,12.60
2018-03-17T04:50:34.212Z,13.00
2018-03-17T04:51:34.225Z,12.90
2018-03-17T04:52:34.178Z,12.80
2018-03-17T04:53:34.176Z,13.20
2018-03-17T04:54:34.144Z,12.90
2018-03-17T04:55:34.108Z,12.90
2018-03-17T04:56:34.086Z,13.20
2018-03-17T04:57:34.080Z,13.10
2018-03-17T04:58:34.044Z,13.70
2018-03-17T04:59:34.038Z,13.10
2018-03-17T05:00:34.005Z,13.20
2018-03-17T05:01:33.981Z,13.50
2018-03-17T05:02:33.976Z,12.90
2018-03-17T05:03:33.968Z,12.80
2018-03-17T05:04:33.931Z,12.80
2018-03-17T05:05:33.916Z,12.60
2018-03-17T05:06:33.877Z,13.10
2018-03-17T05:07:33.854Z,12.50
2018-03-17T05:08:33.834Z,13.20
2018-03-17T05:09:33.819Z,13.20
2018-03-17T05:10:33.821Z,12.90
2018-03-17T05:11:33.773Z,12.30
2018-03-17T05:12:33.753Z,12.50
2018-03-17T05:13:33.730Z,12.70
2018-03-17T05:14:33.708Z,12.30
2018-03-17T05:15:34.510Z,12.00
2018-03-17T05:16:33.679Z,12.00
2018-03-17T05:17:33.649Z,12.50
2018-03-17T05:18:33.622Z,12.30
2018-03-17T05:19:33.599Z,12.30
2018-03-17T05:20:33.592Z,13.00
2018-03-17T05:21:33.569Z,12.70
2018-03-17T05:22:33.549Z,12.80
2018-03-17T05:23:33.519Z,11.80
2018-03-17T05:24:33.552Z,11.90
2018-03-17T05:25:33.485Z,11.70
2018-03-17T05:26:33.453Z,11.80
2018-03-17T05:27:33.446Z,12.10
2018-03-17T05:28:33.427Z,12.00
2018-03-17T05:29:33.385Z,12.20
2018-03-17T05:30:33.438Z,12.40
2018-03-17T05:31:33.343Z,11.70
2018-03-17T05:32:33.959Z,12.20
2018-03-17T05:33:33.303Z,12.00
2018-03-17T05:34:33.313Z,11.70
2018-03-17T05:35:33.264Z,11.40
2018-03-17T05:36:33.253Z,12.00
2018-03-17T05:37:33.231Z,11.70
2018-03-17T05:38:33.189Z,12.50
2018-03-17T05:39:33.182Z,11.90
2018-03-17T05:40:33.153Z,12.00
2018-03-17T05:41:33.155Z,11.60
2018-03-17T05:42:33.112Z,11.40
2018-03-17T05:43:33.086Z,11.80
2018-03-17T05:44:33.070Z,12.20
2018-03-17T05:45:33.045Z,11.80
2018-03-17T05:46:33.024Z,11.70
2018-03-17T05:47:33.015Z,12.30
2018-03-17T05:48:32.990Z,11.80
2018-03-17T05:49:32.959Z,11.80
2018-03-17T05:50:32.933Z,11.50
2018-03-17T05:51:32.939Z,11.80
2018-03-17T05:52:32.916Z,11.50
2018-03-17T05:53:32.876Z,11.10
2018-03-17T05:54:32.851Z,11.50
2018-03-17T05:55:32.843Z,12.00
2018-03-17T05:56:32.824Z,11.20
2018-03-17T05:57:32.786Z,11.00
2018-03-17T05:58:32.920Z,11.10
2018-03-17T05:59:32.739Z,10.90
2018-03-17T06:00:32.733Z,10.80
2018-03-17T06:01:32.714Z,11.00
2018-03-17T06:02:32.702Z,11.60
2018-03-17T06:03:32.675Z,11.10
2018-03-17T06:04:32.631Z,10.90
2018-03-17T06:05:32.617Z,10.60
2018-03-17T06:06:32.597Z,10.50
2018-03-17T06:07:32.590Z,10.60
2018-03-17T06:08:32.565Z,10.50
2018-03-17T06:09:32.533Z,10.50
2018-03-17T06:10:32.510Z,10.60
2018-03-17T06:11:32.483Z,10.90
2018-03-17T06:12:32.463Z,10.40
2018-03-17T06:13:32.473Z,10.60
2018-03-17T06:14:32.422Z,9.90
2018-03-17T06:15:32.397Z,10.50
2018-03-17T06:16:32.391Z,11.20
2018-03-17T06:17:32.384Z,10.60
2018-03-17T06:18:32.346Z,10.00
2018-03-17T06:19:32.314Z,10.10
2018-03-17T06:20:32.290Z,10.20
2018-03-17T06:21:32.272Z,10.20
2018-03-17T06:22:32.250Z,10.40
2018-03-17T06:23:32.233Z,10.50
2018-03-17T06:24:32.219Z,10.20
2018-03-17T06:25:32.213Z,10.80
2018-03-17T06:26:32.176Z,10.50
2018-03-17T06:27:32.157Z,10.30
2018-03-17T06:28:32.135Z,10.20
2018-03-17T06:29:32.098Z,10.80
2018-03-17T06:30:32.076Z,10.60
2018-03-17T06:31:32.075Z,10.50
2018-03-17T06:32:32.034Z,10.30
2018-03-17T06:33:32.015Z,9.90
2018-03-17T06:34:32.026Z,9.70
2018-03-17T06:35:31.972Z,10.10
2018-03-17T06:36:31.984Z,10.10
2018-03-17T06:37:31.928Z,10.40
2018-03-17T06:38:31.902Z,10.70
2018-03-17T06:39:31.903Z,9.90
2018-03-17T06:40:31.861Z,9.50
2018-03-17T06:41:31.855Z,10.10
2018-03-17T06:42:31.813Z,10.10
2018-03-17T06:43:31.817Z,9.60
2018-03-17T06:44:31.846Z,9.90
2018-03-17T06:45:31.754Z,10.20
2018-03-17T06:46:31.768Z,10.10
2018-03-17T06:47:31.720Z,9.80
2018-03-17T06:48:31.703Z,10.10
2018-03-17T06:49:31.684Z,10.00
2018-03-17T06:50:31.659Z,9.70
2018-03-17T06:51:31.629Z,10.10
2018-03-17T06:52:31.608Z,9.70
2018-03-17T06:53:31.611Z,10.00
2018-03-17T06:54:31.642Z,9.90
2018-03-17T06:55:31.534Z,9.60
2018-03-17T06:56:31.518Z,9.90
2018-03-17T06:57:31.500Z,9.90
2018-03-17T06:58:31.490Z,10.40
2018-03-17T06:59:31.470Z,10.00
2018-03-17T07:00:57.393Z,10.10
2018-03-17T07:01:34.037Z,9.40
2018-03-17T07:02:31.381Z,10.00
2018-03-17T07:03:31.718Z,9.80
2018-03-17T07:04:35.022Z,10.00
2018-03-17T07:05:31.324Z,10.40
2018-03-17T07:06:31.322Z,10.40
2018-03-17T07:07:31.308Z,9.70
2018-03-17T07:08:31.258Z,10.30
2018-03-17T07:09:31.236Z,10.20
2018-03-17T07:10:31.217Z,9.60
2018-03-17T07:11:31.191Z,10.00
2018-03-17T07:12:31.189Z,10.00
2018-03-17T07:13:31.163Z,10.00
2018-03-17T07:14:31.131Z,10.00
2018-03-17T07:15:31.129Z,9.90
2018-03-17T07:16:31.086Z,9.50
2018-03-17T07:17:32.038Z,10.40
2018-03-17T07:18:31.042Z,10.00
2018-03-17T07:19:31.033Z,10.10
2018-03-17T07:20:31.005Z,10.00
2018-03-17T07:21:30.994Z,10.30
2018-03-17T07:22:30.957Z,9.90
2018-03-17T07:23:30.950Z,9.80
2018-03-17T07:24:30.914Z,10.50
2018-03-17T07:25:30.895Z,10.50
2018-03-17T07:26:30.890Z,10.30
2018-03-17T07:27:30.845Z,10.70
2018-03-17T07:28:30.827Z,10.10
2018-03-17T07:29:30.807Z,9.90
2018-03-17T07:30:30.787Z,10.50
2018-03-17T07:31:30.761Z,9.80
2018-03-17T07:32:30.764Z,9.60
2018-03-17T07:33:30.724Z,10.10
2018-03-17T07:34:30.698Z,10.00
2018-03-17T07:35:30.675Z,13.90
2018-03-17T07:36:30.662Z,26.30
2018-03-17T07:37:30.635Z,15.20
2018-03-17T07:38:30.631Z,33.10
2018-03-17T07:39:30.593Z,23.70
2018-03-17T07:40:30.572Z,11.80
2018-03-17T07:41:30.551Z,10.20
2018-03-17T07:42:30.527Z,10.50
2018-03-17T07:43:30.518Z,9.90
2018-03-17T07:44:30.488Z,9.90
2018-03-17T07:45:30.461Z,10.40
2018-03-17T07:46:30.440Z,9.90
2018-03-17T07:47:30.422Z,10.50
2018-03-17T07:48:30.396Z,9.90
2018-03-17T07:49:30.391Z,10.40
2018-03-17T07:50:30.362Z,9.70
2018-03-17T07:51:30.334Z,10.00
2018-03-17T07:52:30.306Z,9.90
2018-03-17T07:53:30.320Z,10.30
2018-03-17T07:54:30.282Z,10.80
2018-03-17T07:55:30.246Z,10.30
2018-03-17T07:56:30.536Z,10.20
2018-03-17T07:57:30.201Z,9.70
2018-03-17T07:58:30.182Z,9.70
2018-03-17T07:59:30.159Z,10.40
2018-03-17T08:00:30.152Z,10.00
2018-03-17T08:01:30.116Z,9.70
2018-03-17T08:02:30.093Z,9.80
2018-03-17T08:03:30.073Z,10.30
2018-03-17T08:04:30.056Z,10.10
2018-03-17T08:05:30.051Z,10.00
2018-03-17T08:06:30.006Z,9.90
2018-03-17T08:07:29.983Z,10.40
2018-03-17T08:08:29.968Z,10.30
2018-03-17T08:09:29.943Z,10.40
2018-03-17T08:10:29.938Z,10.30
2018-03-17T08:11:29.906Z,10.00
2018-03-17T08:12:29.880Z,10.20
2018-03-17T08:13:29.852Z,9.60
2018-03-17T08:14:29.879Z,9.80
2018-03-17T08:15:30.195Z,9.80
2018-03-17T08:16:29.789Z,14.30
2018-03-17T08:17:29.775Z,14.00
2018-03-17T08:18:29.754Z,15.20
2018-03-17T08:19:29.726Z,23.50
2018-03-17T08:20:29.709Z,15.90
2018-03-17T08:21:29.711Z,11.00
2018-03-17T08:22:29.661Z,10.60
2018-03-17T08:23:29.637Z,10.70
2018-03-17T08:24:29.624Z,10.00
2018-03-17T08:25:29.597Z,9.70
2018-03-17T08:26:29.591Z,10.20
2018-03-17T08:27:29.552Z,11.20
2018-03-17T08:28:29.568Z,10.10
2018-03-17T08:29:29.508Z,9.50
2018-03-17T08:30:29.489Z,10.30
2018-03-17T08:31:29.464Z,10.70
2018-03-17T08:32:29.451Z,10.70
2018-03-17T08:33:29.428Z,10.20
2018-03-17T08:34:29.421Z,10.00
2018-03-17T08:35:29.380Z,9.80
2018-03-17T08:36:29.360Z,9.80
2018-03-17T08:37:29.339Z,11.00
2018-03-17T08:38:29.318Z,10.50
2018-03-17T08:39:29.326Z,10.20
2018-03-17T08:40:29.287Z,10.80
2018-03-17T08:41:29.251Z,10.20
2018-03-17T08:42:29.232Z,10.50
2018-03-17T08:43:29.216Z,12.30
2018-03-17T08:44:29.186Z,10.30
2018-03-17T08:45:29.184Z,10.50
2018-03-17T08:46:29.156Z,10.50
2018-03-17T08:47:29.125Z,10.20
2018-03-17T08:48:29.115Z,10.40
2018-03-17T08:49:29.077Z,10.40
2018-03-17T08:50:29.058Z,10.40
2018-03-17T08:51:29.051Z,10.80
2018-03-17T08:52:29.016Z,11.00
2018-03-17T08:53:28.991Z,11.00
2018-03-17T08:54:28.967Z,10.90
2018-03-17T08:55:29.054Z,11.00
2018-03-17T08:56:28.946Z,10.80
2018-03-17T08:57:28.908Z,10.40
2018-03-17T08:58:28.889Z,10.40
2018-03-17T08:59:28.868Z,10.80
2018-03-17T09:00:28.859Z,10.80
2018-03-17T09:01:28.869Z,11.00
2018-03-17T09:02:28.800Z,11.00
2018-03-17T09:03:28.774Z,10.80
2018-03-17T09:04:28.759Z,11.00
2018-03-17T09:05:28.734Z,15.50
2018-03-17T09:06:28.857Z,14.90
2018-03-17T09:07:28.727Z,19.00
2018-03-17T09:08:28.699Z,12.50
2018-03-17T09:09:28.663Z,21.90
2018-03-17T09:10:28.629Z,10.50
2018-03-17T09:11:28.647Z,10.40
2018-03-17T09:12:28.638Z,10.70
2018-03-17T09:13:28.567Z,10.40
2018-03-17T09:14:28.540Z,10.70
2018-03-17T09:15:28.520Z,10.80
2018-03-17T09:16:28.499Z,11.10
2018-03-17T09:17:28.493Z,10.60
2018-03-17T09:18:28.458Z,10.40
2018-03-17T09:19:28.437Z,10.20
2018-03-17T09:20:28.416Z,10.60
2018-03-17T09:21:28.405Z,10.20
2018-03-17T09:22:28.410Z,10.30
2018-03-17T09:23:28.364Z,10.50
2018-03-17T09:24:28.329Z,10.40
2018-03-17T09:25:28.307Z,10.50
2018-03-17T09:26:28.283Z,10.40
2018-03-17T09:27:28.259Z,10.50
2018-03-17T09:28:28.256Z,10.50
2018-03-17T09:29:28.219Z,10.40
2018-03-17T09:30:28.208Z,10.70
2018-03-17T09:31:28.178Z,10.00
2018-03-17T09:32:28.159Z,10.10
2018-03-17T09:33:28.132Z,30.60
2018-03-17T09:34:28.112Z,23.10
2018-03-17T09:35:28.090Z,12.00
2018-03-17T09:36:28.085Z,12.20
2018-03-17T09:37:28.052Z,20.10
2018-03-17T09:38:28.023Z,10.80
2018-03-17T09:39:28.029Z,10.50
2018-03-17T09:40:28.003Z,10.20
2018-03-17T09:41:27.991Z,10.20
2018-03-17T09:42:27.961Z,10.20
2018-03-17T09:43:27.915Z,9.90
2018-03-17T09:44:27.904Z,10.10
2018-03-17T09:45:27.906Z,9.60
2018-03-17T09:46:27.872Z,10.40
2018-03-17T09:47:27.834Z,10.50
2018-03-17T09:48:28.428Z,10.00
2018-03-17T09:49:27.790Z,10.20
2018-03-17T09:50:27.771Z,10.30
2018-03-17T09:51:27.765Z,10.10
2018-03-17T09:52:27.730Z,10.30
2018-03-17T09:53:27.708Z,10.00
2018-03-17T09:54:27.688Z,10.10
2018-03-17T09:55:27.659Z,9.70
2018-03-17T09:56:27.643Z,10.50
2018-03-17T09:57:27.636Z,10.20
2018-03-17T09:58:27.601Z,10.20
2018-03-17T09:59:27.592Z,11.00
2018-03-17T10:00:27.558Z,10.70
2018-03-17T10:01:27.532Z,10.40
2018-03-17T10:02:27.510Z,11.00
2018-03-17T10:03:27.515Z,10.00
2018-03-17T10:04:27.470Z,10.40
2018-03-17T10:05:27.457Z,10.50
2018-03-17T10:06:27.430Z,10.00
2018-03-17T10:07:27.410Z,10.40
2018-03-17T10:08:27.404Z,10.00
2018-03-17T10:09:27.367Z,10.20
2018-03-17T10:10:27.343Z,10.40
2018-03-17T10:11:27.325Z,11.00
2018-03-17T10:12:27.303Z,10.40
2018-03-17T10:13:27.281Z,10.50
2018-03-17T10:14:48.285Z,10.60
2018-03-17T10:15:27.302Z,10.80
2018-03-17T10:16:27.255Z,10.20
2018-03-17T10:17:27.213Z,10.60
2018-03-17T10:18:27.204Z,9.90
2018-03-17T10:19:27.167Z,10.20
2018-03-17T10:20:27.135Z,9.50
2018-03-17T10:21:27.420Z,10.20
2018-03-17T10:22:33.287Z,11.80
2018-03-17T10:23:28.668Z,23.70
2018-03-17T10:24:34.514Z,13.60
2018-03-17T10:25:27.106Z,14.10
2018-03-17T10:26:27.024Z,29.10
2018-03-17T10:27:26.984Z,11.40
2018-03-17T10:28:26.962Z,9.60
2018-03-17T10:29:27.014Z,9.50
2018-03-17T10:30:26.939Z,10.10
2018-03-17T10:31:26.906Z,10.20
2018-03-17T10:32:26.885Z,10.00
2018-03-17T10:33:26.859Z,14.10
2018-03-17T10:34:26.853Z,11.10
2018-03-17T10:35:26.826Z,9.40
2018-03-17T10:36:26.793Z,9.10
2018-03-17T10:37:26.789Z,7.90
2018-03-17T10:38:26.756Z,8.00
2018-03-17T10:39:26.738Z,8.40
2018-03-17T10:40:26.713Z,7.90
2018-03-17T10:41:26.695Z,7.90
2018-03-17T10:42:26.694Z,8.20
2018-03-17T10:43:26.650Z,8.10
2018-03-17T10:44:26.629Z,11.30
2018-03-17T10:45:26.609Z,17.60
2018-03-17T10:46:26.588Z,20.20
2018-03-17T10:47:26.630Z,11.80
2018-03-17T10:48:26.655Z,10.00
2018-03-17T10:49:26.521Z,9.40
2018-03-17T10:50:26.502Z,9.10
2018-03-17T10:51:26.486Z,9.90
2018-03-17T10:52:26.464Z,10.40
2018-03-17T10:53:26.442Z,10.10
2018-03-17T10:54:26.462Z,10.30
2018-03-17T10:55:26.418Z,9.90
2018-03-17T10:56:26.400Z,9.60
2018-03-17T10:57:26.362Z,9.70
2018-03-17T10:58:26.346Z,9.70
2018-03-17T10:59:26.334Z,10.40
2018-03-17T11:00:26.299Z,9.50
2018-03-17T11:01:26.586Z,10.00
2018-03-17T11:02:26.260Z,10.00
2018-03-17T11:03:26.247Z,9.00
2018-03-17T11:04:26.220Z,9.00
2018-03-17T11:05:26.265Z,9.00
2018-03-17T11:06:26.185Z,9.00
2018-03-17T11:07:26.154Z,9.10
2018-03-17T11:08:26.138Z,9.30
2018-03-17T11:09:26.133Z,8.80
2018-03-17T11:10:26.116Z,8.90
2018-03-17T11:11:26.084Z,9.00
2018-03-17T11:12:26.072Z,8.90
2018-03-17T11:13:26.028Z,9.20
2018-03-17T11:14:26.034Z,9.60
2018-03-17T11:15:25.995Z,9.30
2018-03-17T11:16:25.973Z,9.40
2018-03-17T11:17:25.956Z,10.00
2018-03-17T11:18:25.929Z,10.10
2018-03-17T11:19:25.915Z,9.80
2018-03-17T11:20:25.907Z,9.80
2018-03-17T11:21:25.870Z,9.70
2018-03-17T11:22:25.875Z,9.40
2018-03-17T11:23:25.828Z,9.10
2018-03-17T11:24:25.808Z,9.30
2018-03-17T11:25:25.808Z,10.10
2018-03-17T11:26:25.768Z,9.50
2018-03-17T11:27:25.747Z,9.80
2018-03-17T11:28:25.770Z,9.30
2018-03-17T11:29:25.707Z,9.50
2018-03-17T11:30:25.702Z,9.10
2018-03-17T11:31:25.666Z,9.30
2018-03-17T11:32:25.664Z,9.20
2018-03-17T11:33:25.626Z,9.20
2018-03-17T11:34:25.608Z,9.60
2018-03-17T11:35:25.602Z,9.80
2018-03-17T11:36:25.580Z,9.10
2018-03-17T11:37:25.547Z,9.40
2018-03-17T11:38:25.522Z,9.60
2018-03-17T11:39:25.518Z,9.20
2018-03-17T11:40:25.488Z,9.50
2018-03-17T11:41:25.493Z,9.50
2018-03-17T11:42:25.448Z,8.70
2018-03-17T11:43:25.424Z,8.80
2018-03-17T11:44:25.407Z,8.80
2018-03-17T11:45:25.395Z,9.50
2018-03-17T11:46:25.389Z,9.60
2018-03-17T11:47:25.342Z,9.50
2018-03-17T11:48:25.325Z,9.10
2018-03-17T11:49:25.313Z,9.20
2018-03-17T11:50:25.388Z,9.30
2018-03-17T11:51:25.264Z,9.10
2018-03-17T11:52:25.260Z,8.90
2018-03-17T11:53:25.223Z,8.90
2018-03-17T11:54:25.200Z,8.80
2018-03-17T11:55:25.183Z,9.50
2018-03-17T11:56:25.172Z,9.70
2018-03-17T11:57:25.140Z,9.60
2018-03-17T11:58:25.137Z,9.50
2018-03-17T11:59:25.101Z,9.70
2018-03-17T12:00:25.075Z,9.50
2018-03-17T12:01:25.059Z,8.90
2018-03-17T12:02:25.098Z,9.40
2018-03-17T12:03:25.028Z,8.80
2018-03-17T12:04:25.012Z,9.30
2018-03-17T12:05:24.977Z,9.50
2018-03-17T12:06:24.957Z,9.50
2018-03-17T12:07:24.933Z,9.20
2018-03-17T12:08:24.918Z,9.40
2018-03-17T12:09:24.896Z,9.60
2018-03-17T12:10:24.886Z,9.20
2018-03-17T12:11:24.851Z,9.50
2018-03-17T12:12:24.833Z,9.70
2018-03-17T12:13:24.827Z,9.20
2018-03-17T12:14:24.791Z,9.10
2018-03-17T12:15:24.770Z,9.50
2018-03-17T12:16:24.753Z,9.60
2018-03-17T12:17:24.731Z,9.80
2018-03-17T12:18:24.796Z,9.50
2018-03-17T12:19:24.950Z,8.90
2018-03-17T12:20:24.668Z,9.70
2018-03-17T12:21:24.667Z,9.60
2018-03-17T12:22:24.644Z,9.40
2018-03-17T12:23:24.606Z,9.30
2018-03-17T12:24:24.585Z,9.60
2018-03-17T12:25:24.562Z,9.00
2018-03-17T12:26:24.543Z,10.00
2018-03-17T12:27:24.555Z,10.20
2018-03-17T12:28:24.503Z,10.40
2018-03-17T12:29:24.481Z,10.10
2018-03-17T12:30:24.458Z,9.70
2018-03-17T12:31:24.453Z,9.40
2018-03-17T12:32:24.516Z,9.70
2018-03-17T12:33:24.408Z,9.90
2018-03-17T12:34:24.379Z,9.30
2018-03-17T12:35:24.374Z,9.80
2018-03-17T12:36:24.328Z,9.80
2018-03-17T12:37:24.328Z,9.50
2018-03-17T12:38:24.291Z,9.70
2018-03-17T12:39:24.274Z,9.60
2018-03-17T12:40:24.255Z,9.30
2018-03-17T12:41:24.240Z,9.10
2018-03-17T12:42:24.207Z,9.60
2018-03-17T12:43:24.198Z,9.80
2018-03-17T12:44:24.172Z,9.30
2018-03-17T12:45:24.147Z,9.50
2018-03-17T12:46:24.120Z,9.00
2018-03-17T12:47:24.105Z,9.30
2018-03-17T12:48:24.523Z,9.30
2018-03-17T12:49:24.588Z,9.10
2018-03-17T12:50:24.044Z,9.80
2018-03-17T12:51:24.020Z,9.90
2018-03-17T12:52:24.003Z,8.70
2018-03-17T12:53:24.000Z,9.50
2018-03-17T12:54:23.951Z,9.80
2018-03-17T12:55:23.937Z,9.60
2018-03-17T12:56:23.915Z,9.60
2018-03-17T12:57:23.895Z,9.90
2018-03-17T12:58:23.885Z,9.30